createdAt,value
2022-12-15T00:03:45.208Z,17.40
2022-12-15T00:09:12.660Z,18.20
2022-12-15T00:14:36.895Z,18.23
2022-12-15T00:19:58.572Z,13.35
2022-12-15T00:25:20.612Z,18.95
2022-12-15T00:30:43.440Z,14.13
2022-12-15T00:36:04.646Z,16.02
2022-12-15T00:41:08.837Z,16.13
2022-12-15T00:46:32.676Z,14.57
2022-12-15T00:51:54.396Z,18.17
2022-12-15T00:57:16.159Z,16.30
2022-12-15T01:02:39.028Z,22.42
2022-12-15T01:08:00.737Z,21.27
2022-12-15T01:13:23.479Z,17.20
2022-12-15T01:18:49.632Z,17.27
2022-12-15T01:23:54.529Z,17.02
2022-12-15T01:28:58.550Z,21.15
2022-12-15T01:34:04.086Z,16.15
2022-12-15T01:39:08.258Z,19.33
2022-12-15T01:44:20.711Z,16.80
2022-12-15T01:49:30.391Z,16.42
2022-12-15T01:54:39.914Z,14.07
2022-12-15T01:59:50.834Z,18.77
2022-12-15T02:04:59.057Z,21.33
2022-12-15T02:10:07.396Z,17.77
2022-12-15T02:15:21.797Z,13.25
2022-12-15T02:20:48.796Z,16.58
2022-12-15T02:26:11.599Z,15.32
2022-12-15T02:31:39.433Z,14.18
2022-12-15T02:36:48.283Z,17.13
2022-12-15T02:41:54.951Z,19.23
2022-12-15T02:47:26.403Z,20.75
2022-12-15T02:52:46.077Z,18.13
2022-12-15T03:03:00.993Z,20.80
2022-12-15T03:08:05.341Z,14.60
2022-12-15T03:13:09.629Z,19.52
2022-12-15T03:18:16.558Z,21.30
2022-12-15T03:23:23.023Z,22.52
2022-12-15T03:28:27.043Z,15.57
2022-12-15T03:33:34.672Z,28.73
2022-12-15T03:38:39.223Z,22.63
2022-12-15T03:43:43.275Z,13.60
2022-12-15T03:48:48.896Z,17.27
2022-12-15T03:53:53.930Z,22.48
2022-12-15T03:58:58.051Z,17.50
2022-12-15T04:04:04.502Z,21.08
2022-12-15T04:09:08.786Z,15.68
2022-12-15T04:14:12.919Z,13.40
2022-12-15T04:19:35.749Z,19.63
2022-12-15T04:24:56.814Z,21.90
2022-12-15T04:30:18.638Z,18.95
2022-12-15T04:35:41.203Z,22.30
2022-12-15T04:41:02.833Z,23.65
2022-12-15T04:46:24.571Z,28.25
2022-12-15T04:51:47.273Z,36.78
2022-12-15T04:57:08.453Z,29.40
2022-12-15T05:02:29.620Z,31.05
2022-12-15T05:07:52.568Z,26.98
2022-12-15T05:13:14.195Z,26.00
2022-12-15T05:18:36.092Z,34.92
2022-12-15T05:23:58.890Z,33.97
2022-12-15T05:29:20.646Z,27.38
2022-12-15T05:34:27.098Z,34.05
2022-12-15T05:39:32.671Z,28.23
2022-12-15T05:44:36.740Z,33.08
2022-12-15T05:49:42.531Z,35.25
2022-12-15T05:54:49.137Z,48.38
2022-12-15T05:59:53.415Z,69.25
2022-12-15T06:04:57.520Z,44.00
2022-12-15T06:10:03.009Z,52.25
2022-12-15T06:15:07.872Z,44.40
2022-12-15T06:20:13.435Z,59.47
2022-12-15T06:25:18.966Z,60.50
2022-12-15T06:30:23.118Z,52.33
2022-12-15T06:35:27.531Z,52.95
2022-12-15T06:40:37.657Z,56.63
2022-12-15T06:45:49.877Z,42.03
2022-12-15T06:50:54.179Z,54.33
2022-12-15T06:56:18.074Z,72.85
2022-12-15T07:01:23.672Z,71.25
2022-12-15T07:06:30.420Z,71.38
2022-12-15T07:11:36.155Z,59.15
2022-12-15T07:16:41.285Z,53.63
2022-12-15T07:21:45.672Z,64.43
2022-12-15T07:26:51.206Z,81.55
2022-12-15T07:31:56.262Z,100.80
2022-12-15T07:37:03.091Z,79.97
2022-12-15T07:42:09.097Z,46.72
2022-12-15T07:47:13.194Z,49.15
2022-12-15T07:52:17.344Z,51.35
2022-12-15T07:57:24.044Z,63.90
2022-12-15T08:02:28.668Z,60.63
2022-12-15T08:07:32.839Z,69.75
2022-12-15T08:12:38.545Z,65.32
2022-12-15T08:17:42.756Z,71.18
2022-12-15T08:22:47.037Z,84.30
2022-12-15T08:27:53.271Z,88.80
2022-12-15T08:32:57.475Z,86.43
2022-12-15T08:38:05.586Z,96.03
2022-12-15T08:43:12.676Z,51.83
2022-12-15T08:48:17.592Z,86.90
2022-12-15T08:53:31.398Z,72.22
2022-12-15T08:58:37.935Z,78.53
2022-12-15T09:03:42.097Z,72.43
2022-12-15T09:08:48.463Z,66.15
2022-12-15T09:13:57.657Z,68.50
2022-12-15T09:19:02.710Z,69.85
2022-12-15T09:24:07.707Z,81.97
2022-12-15T09:29:14.576Z,82.93
2022-12-15T09:34:20.038Z,65.63
2022-12-15T09:39:24.742Z,48.05
2022-12-15T09:44:34.231Z,25.27
2022-12-15T09:49:48.844Z,16.63
2022-12-15T09:54:53.307Z,26.70
2022-12-15T10:00:10.379Z,18.23
2022-12-15T10:05:29.773Z,9.93
2022-12-15T10:10:46.604Z,8.70
2022-12-15T10:16:01.050Z,7.60
2022-12-15T10:21:05.447Z,10.20
2022-12-15T10:26:20.963Z,11.45
2022-12-15T10:31:36.230Z,10.25
2022-12-15T10:36:50.691Z,7.00
2022-12-15T10:42:24.541Z,13.25
2022-12-15T10:47:32.183Z,14.80
2022-12-15T10:52:38.961Z,10.45
2022-12-15T10:58:01.426Z,9.25
2022-12-15T11:03:22.558Z,30.98
2022-12-15T11:08:28.962Z,6.85
2022-12-15T11:13:35.040Z,10.57
2022-12-15T11:18:48.762Z,16.38
2022-12-15T11:23:59.234Z,14.30
2022-12-15T11:29:12.863Z,7.55
2022-12-15T11:34:21.274Z,12.20
2022-12-15T11:39:38.284Z,23.93
2022-12-15T11:44:53.559Z,37.65
2022-12-15T11:50:21.264Z,15.50
2022-12-15T11:55:41.508Z,20.30
2022-12-15T12:00:52.425Z,16.60
2022-12-15T12:06:09.124Z,23.52
2022-12-15T12:11:17.516Z,20.52
2022-12-15T12:16:33.202Z,21.00
2022-12-15T12:21:44.397Z,18.50
2022-12-15T12:26:56.144Z,13.25
2022-12-15T12:32:09.025Z,24.38
2022-12-15T12:37:23.801Z,13.63
2022-12-15T12:42:36.613Z,13.63
2022-12-15T12:47:45.580Z,15.85
2022-12-15T12:52:53.903Z,21.48
2022-12-15T12:57:59.178Z,15.10
2022-12-15T13:03:20.413Z,16.65
2022-12-15T13:08:55.927Z,14.38
2022-12-15T13:14:00.252Z,22.08
2022-12-15T13:19:08.571Z,33.25
2022-12-15T13:24:27.593Z,44.30
2022-12-15T13:29:31.901Z,82.03
2022-12-15T13:34:39.980Z,40.05
2022-12-15T13:39:58.659Z,45.05
2022-12-15T13:45:39.924Z,26.17
2022-12-15T13:50:54.519Z,18.05
2022-12-15T13:56:46.135Z,60.00
2022-12-15T14:01:52.449Z,41.15
2022-12-15T14:06:59.493Z,26.88
2022-12-15T14:12:07.466Z,35.88
2022-12-15T14:17:16.944Z,23.38
2022-12-15T14:27:50.686Z,26.33
2022-12-15T14:32:59.851Z,36.88
2022-12-15T14:38:08.072Z,24.87
2022-12-15T14:43:20.679Z,26.08
2022-12-15T14:48:41.114Z,68.75
2022-12-15T14:53:57.218Z,90.30
2022-12-15T14:59:04.882Z,53.10
2022-12-15T15:04:25.183Z,78.72
2022-12-15T15:09:31.546Z,47.03
2022-12-15T15:14:46.269Z,32.67
2022-12-15T15:19:53.020Z,83.90
2022-12-15T15:24:57.458Z,107.53
2022-12-15T15:30:19.989Z,96.38
2022-12-15T15:35:27.051Z,68.72
2022-12-15T15:40:33.213Z,74.22
2022-12-15T15:45:38.958Z,69.18
2022-12-15T15:50:43.382Z,75.15
2022-12-15T15:55:50.591Z,78.93
2022-12-15T16:00:58.341Z,77.50
2022-12-15T16:06:03.105Z,79.85
2022-12-15T16:11:07.884Z,61.50
2022-12-15T16:16:19.259Z,64.68
2022-12-15T16:21:27.717Z,68.55
2022-12-15T16:26:34.363Z,75.35
2022-12-15T16:31:45.494Z,81.35
2022-12-15T16:36:51.317Z,77.63
2022-12-15T16:41:56.934Z,87.85
2022-12-15T16:47:05.353Z,72.22
2022-12-15T16:52:20.355Z,122.30
2022-12-15T16:57:25.465Z,143.77
2022-12-15T17:02:34.921Z,105.70
2022-12-15T17:07:41.210Z,103.68
2022-12-15T17:12:49.328Z,135.23
2022-12-15T17:17:58.361Z,182.85
2022-12-15T17:23:05.883Z,97.93
2022-12-15T17:28:17.359Z,87.07
2022-12-15T17:33:26.366Z,50.33
2022-12-15T17:38:30.878Z,45.40
2022-12-15T17:43:36.199Z,24.38
2022-12-15T17:48:41.900Z,22.73
2022-12-15T17:53:47.717Z,42.75
2022-12-15T17:58:52.203Z,47.25
2022-12-15T18:03:57.765Z,49.25
2022-12-15T18:09:02.319Z,86.88
2022-12-15T18:14:11.178Z,87.55
2022-12-15T18:19:16.838Z,82.10
2022-12-15T18:24:21.688Z,76.97
2022-12-15T18:29:26.383Z,133.75
2022-12-15T18:34:31.866Z,85.07
2022-12-15T18:39:36.731Z,35.38
2022-12-15T18:44:48.961Z,69.60
2022-12-15T18:49:54.742Z,90.05
2022-12-15T18:54:59.751Z,96.88
2022-12-15T19:00:17.725Z,92.80
2022-12-15T19:05:29.439Z,21.70
2022-12-15T19:10:35.769Z,22.05
2022-12-15T19:15:39.743Z,34.38
2022-12-15T19:21:02.664Z,35.85
2022-12-15T19:26:07.130Z,21.95
2022-12-15T19:31:11.354Z,9.55
2022-12-15T19:36:21.261Z,101.93
2022-12-15T19:41:26.304Z,108.55
2022-12-15T19:46:30.421Z,110.63
2022-12-15T19:51:35.950Z,104.05
2022-12-15T19:56:40.477Z,95.53
2022-12-15T20:01:44.622Z,107.15
2022-12-15T20:06:50.563Z,167.63
2022-12-15T20:11:54.567Z,192.05
2022-12-15T20:16:59.330Z,143.85
2022-12-15T20:22:06.943Z,115.05
2022-12-15T20:27:14.483Z,105.78
2022-12-15T20:32:22.141Z,121.53
2022-12-15T20:37:30.319Z,94.47
2022-12-15T20:42:34.380Z,143.88
2022-12-15T20:47:43.642Z,148.90
2022-12-15T20:52:49.648Z,145.27
2022-12-15T20:57:55.933Z,159.27
2022-12-15T21:03:00.359Z,155.55
2022-12-15T21:08:15.750Z,177.00
2022-12-15T21:13:23.300Z,180.13
2022-12-15T21:19:11.046Z,159.88
2022-12-15T21:23:54.696Z,119.70
2022-12-15T21:29:00.934Z,89.90
2022-12-15T21:34:05.008Z,80.65
2022-12-15T21:39:14.033Z,84.30
2022-12-15T21:44:18.825Z,71.03
2022-12-15T21:49:24.098Z,77.53
2022-12-15T21:54:32.906Z,117.07
2022-12-15T21:59:38.831Z,135.18
2022-12-15T22:04:43.162Z,103.28
2022-12-15T22:09:48.658Z,114.43
2022-12-15T22:14:53.309Z,155.07
2022-12-15T22:19:57.375Z,127.15
2022-12-15T22:25:04.180Z,176.25
2022-12-15T22:30:16.236Z,194.30
2022-12-15T22:35:22.861Z,172.68
2022-12-15T22:40:30.383Z,119.60
2022-12-15T22:45:37.092Z,128.70
2022-12-15T22:50:45.253Z,103.70
2022-12-15T22:55:52.246Z,133.55
2022-12-15T23:00:58.893Z,151.75
2022-12-15T23:06:04.894Z,124.13
2022-12-15T23:11:28.128Z,125.18
2022-12-15T23:16:32.503Z,100.40
2022-12-15T23:21:37.503Z,126.30
2022-12-15T23:26:42.843Z,90.28
2022-12-15T23:31:47.551Z,94.43
2022-12-15T23:36:51.741Z,121.78
2022-12-15T23:41:57.308Z,100.55
2022-12-15T23:47:01.632Z,100.00
2022-12-15T23:52:07.149Z,110.18
2022-12-15T23:57:15.583Z,95.40
